createdAt,value
2022-09-14T00:02:42.464Z,49.70
2022-09-14T00:05:44.871Z,49.70
2022-09-14T00:08:51.188Z,49.60
2022-09-14T00:11:53.118Z,50.20
2022-09-14T00:14:54.902Z,49.60
2022-09-14T00:17:56.613Z,49.70
2022-09-14T00:21:07.280Z,49.70
2022-09-14T00:24:11.045Z,49.70
2022-09-14T00:27:12.747Z,49.70
2022-09-14T00:30:14.515Z,49.70
2022-09-14T00:33:16.238Z,49.70
2022-09-14T00:36:21.793Z,49.70
2022-09-14T00:39:24.457Z,49.60
2022-09-14T00:42:26.310Z,49.70
2022-09-14T00:45:28.227Z,49.70
2022-09-14T00:48:30.762Z,49.70
2022-09-14T00:51:34.386Z,49.70
2022-09-14T00:54:39.177Z,49.70
2022-09-14T00:57:48.576Z,49.70
2022-09-14T01:00:50.319Z,50.30
2022-09-14T01:03:52.158Z,49.70
2022-09-14T01:07:17.828Z,49.70
2022-09-14T01:10:29.334Z,49.70
2022-09-14T01:13:54.024Z,49.70
2022-09-14T01:17:14.288Z,49.80
2022-09-14T01:20:30.140Z,49.80
2022-09-14T01:23:49.096Z,49.70
2022-09-14T01:27:20.045Z,49.70
2022-09-14T01:30:23.420Z,49.70
2022-09-14T01:33:34.901Z,49.70
2022-09-14T01:36:39.817Z,49.70
2022-09-14T01:39:45.691Z,49.80
2022-09-14T01:42:55.077Z,49.80
2022-09-14T01:46:03.502Z,49.80
2022-09-14T01:49:18.517Z,49.80
2022-09-14T01:52:26.733Z,49.80
2022-09-14T01:55:32.754Z,49.80
2022-09-14T01:58:40.648Z,49.80
2022-09-14T02:02:00.193Z,49.90
2022-09-14T02:05:10.456Z,49.80
2022-09-14T02:08:12.402Z,49.80
2022-09-14T02:11:14.132Z,49.80
2022-09-14T02:14:15.929Z,49.80
2022-09-14T02:17:17.785Z,49.80
2022-09-14T02:20:34.030Z,49.80
2022-09-14T02:23:36.251Z,49.70
2022-09-14T02:26:39.186Z,49.80
2022-09-14T02:29:41.402Z,49.70
2022-09-14T02:33:02.505Z,49.80
2022-09-14T02:36:36.092Z,49.80
2022-09-14T02:39:43.230Z,49.80
2022-09-14T02:43:14.672Z,49.80
2022-09-14T02:46:38.381Z,49.80
2022-09-14T02:50:08.956Z,49.80
2022-09-14T02:53:19.522Z,49.80
2022-09-14T02:56:21.802Z,49.80
2022-09-14T02:59:23.510Z,49.80
2022-09-14T03:02:25.450Z,49.80
2022-09-14T03:05:27.442Z,49.80
2022-09-14T03:08:29.353Z,49.80
2022-09-14T03:11:31.072Z,49.80
2022-09-14T03:14:32.747Z,49.90
2022-09-14T03:17:34.441Z,49.80
2022-09-14T03:20:36.233Z,49.80
2022-09-14T03:23:45.247Z,49.80
2022-09-14T03:26:47.255Z,49.80
2022-09-14T03:29:49.017Z,49.80
2022-09-14T03:32:50.837Z,49.80
2022-09-14T03:35:52.551Z,49.80
2022-09-14T03:38:56.066Z,49.80
2022-09-14T03:41:57.771Z,49.80
2022-09-14T03:44:59.537Z,49.80
2022-09-14T03:48:01.315Z,49.80
2022-09-14T03:51:05.451Z,49.90
2022-09-14T03:54:07.216Z,49.80
2022-09-14T03:57:09.560Z,49.90
2022-09-14T04:00:11.844Z,49.90
2022-09-14T04:03:13.613Z,49.90
2022-09-14T04:06:16.819Z,49.90
2022-09-14T04:09:19.305Z,49.90
2022-09-14T04:12:21.037Z,49.90
2022-09-14T04:15:22.730Z,50.00
2022-09-14T04:18:25.229Z,49.90
2022-09-14T04:21:26.971Z,49.80
2022-09-14T04:24:30.624Z,49.90
2022-09-14T04:27:32.860Z,49.90
2022-09-14T04:30:34.589Z,49.90
2022-09-14T04:33:37.616Z,49.90
2022-09-14T04:36:39.412Z,50.00
2022-09-14T04:39:42.369Z,50.00
2022-09-14T04:42:44.139Z,50.10
2022-09-14T04:45:45.869Z,50.20
2022-09-14T04:48:48.981Z,50.30
2022-09-14T04:51:50.777Z,50.30
2022-09-14T04:54:52.493Z,50.30
2022-09-14T04:57:54.198Z,50.40
2022-09-14T05:01:02.288Z,50.40
2022-09-14T05:04:05.440Z,50.50
2022-09-14T05:07:07.142Z,50.60
2022-09-14T05:10:09.009Z,50.70
2022-09-14T05:13:10.748Z,50.70
2022-09-14T05:16:19.766Z,50.60
2022-09-14T05:19:21.501Z,50.90
2022-09-14T05:22:23.697Z,50.90
2022-09-14T05:25:27.012Z,51.00
2022-09-14T05:28:28.825Z,51.10
2022-09-14T05:31:31.564Z,51.10
2022-09-14T05:34:33.414Z,51.00
2022-09-14T05:37:35.157Z,51.10
2022-09-14T05:40:36.856Z,51.00
2022-09-14T05:43:39.194Z,50.90
2022-09-14T05:46:41.041Z,51.10
2022-09-14T05:49:42.834Z,51.00
2022-09-14T05:52:44.553Z,50.90
2022-09-14T05:55:46.369Z,51.00
2022-09-14T05:58:49.227Z,51.10
2022-09-14T06:01:51.021Z,51.20
2022-09-14T06:04:52.859Z,51.10
2022-09-14T06:07:54.956Z,51.10
2022-09-14T06:10:56.679Z,51.00
2022-09-14T06:13:58.722Z,51.00
2022-09-14T06:17:01.501Z,50.80
2022-09-14T06:20:05.119Z,51.00
2022-09-14T06:23:06.846Z,50.90
2022-09-14T06:26:09.305Z,50.80
2022-09-14T06:29:11.004Z,52.00
2022-09-14T06:32:12.705Z,52.80
2022-09-14T06:35:14.893Z,52.40
2022-09-14T06:38:16.614Z,52.10
2022-09-14T06:41:21.648Z,51.90
2022-09-14T06:44:23.435Z,51.90
2022-09-14T06:47:25.160Z,52.10
2022-09-14T06:50:27.565Z,51.80
2022-09-14T06:53:29.605Z,51.70
2022-09-14T06:56:33.195Z,51.60
2022-09-14T06:59:34.874Z,51.50
2022-09-14T07:02:36.596Z,51.40
2022-09-14T07:05:38.321Z,51.40
2022-09-14T07:08:40.238Z,51.50
2022-09-14T07:11:43.273Z,51.30
2022-09-14T07:14:44.969Z,51.20
2022-09-14T07:17:47.214Z,51.30
2022-09-14T07:20:49.520Z,51.30
2022-09-14T07:23:52.019Z,51.20
2022-09-14T07:26:53.716Z,51.20
2022-09-14T07:29:55.643Z,51.30
2022-09-14T07:32:57.360Z,51.40
2022-09-14T07:36:10.349Z,51.20
2022-09-14T07:39:14.858Z,51.10
2022-09-14T07:42:16.750Z,51.10
2022-09-14T07:45:18.506Z,51.10
2022-09-14T07:48:20.889Z,51.10
2022-09-14T07:51:23.708Z,51.10
2022-09-14T07:54:25.636Z,51.20
2022-09-14T07:57:52.237Z,51.10
2022-09-14T08:00:49.533Z,51.00
2022-09-14T08:03:51.255Z,51.10
2022-09-14T08:06:52.907Z,51.00
2022-09-14T08:09:54.618Z,50.90
2022-09-14T08:12:56.649Z,51.00
2022-09-14T08:16:01.914Z,51.10
2022-09-14T08:19:06.855Z,50.90
2022-09-14T08:22:08.618Z,50.90
2022-09-14T08:25:11.574Z,50.90
2022-09-14T08:28:13.208Z,50.80
2022-09-14T08:31:21.087Z,51.00
2022-09-14T08:34:22.870Z,51.00
2022-09-14T08:37:24.584Z,50.90
2022-09-14T08:40:26.399Z,50.90
2022-09-14T08:43:28.247Z,50.90
2022-09-14T08:46:53.567Z,50.90
2022-09-14T08:50:11.399Z,50.90
2022-09-14T08:53:13.088Z,50.90
2022-09-14T08:56:23.022Z,51.00
2022-09-14T08:59:43.879Z,50.90
2022-09-14T09:03:07.254Z,50.90
2022-09-14T09:06:33.431Z,50.90
2022-09-14T09:09:50.489Z,51.00
2022-09-14T09:12:56.206Z,50.90
2022-09-14T09:16:02.036Z,50.90
2022-09-14T09:19:07.886Z,51.00
2022-09-14T09:22:21.909Z,50.90
2022-09-14T09:25:31.962Z,51.00
2022-09-14T09:28:34.315Z,51.00
2022-09-14T09:31:42.095Z,50.90
2022-09-14T09:35:04.592Z,50.90
2022-09-14T09:38:24.594Z,50.90
2022-09-14T09:41:35.022Z,51.00
2022-09-14T09:45:03.838Z,51.00
2022-09-14T09:48:10.535Z,51.00
2022-09-14T09:51:24.645Z,51.00
2022-09-14T09:54:32.246Z,51.00
2022-09-14T09:57:36.431Z,51.10
2022-09-14T10:00:38.216Z,51.00
2022-09-14T10:03:41.046Z,51.00
2022-09-14T10:06:48.156Z,51.00
2022-09-14T10:09:59.799Z,51.00
2022-09-14T10:13:04.006Z,51.00
2022-09-14T10:16:16.462Z,51.00
2022-09-14T10:19:29.095Z,50.90
2022-09-14T10:22:35.781Z,51.00
2022-09-14T10:25:37.572Z,51.00
2022-09-14T10:28:44.427Z,51.00
2022-09-14T10:31:48.330Z,51.10
2022-09-14T10:34:51.383Z,51.00
2022-09-14T10:38:28.862Z,51.00
2022-09-14T10:41:45.534Z,51.00
2022-09-14T10:45:15.595Z,50.90
2022-09-14T10:48:40.452Z,50.90
2022-09-14T10:52:15.548Z,51.00
2022-09-14T10:55:39.960Z,50.90
2022-09-14T10:59:13.729Z,50.90
2022-09-14T11:03:01.157Z,50.90
2022-09-14T11:06:37.881Z,50.90
2022-09-14T11:09:54.471Z,50.90
2022-09-14T11:13:33.835Z,50.90
2022-09-14T11:16:57.421Z,50.90
2022-09-14T11:20:18.764Z,51.00
2022-09-14T11:23:50.965Z,51.00
2022-09-14T11:27:26.522Z,51.00
2022-09-14T11:30:39.391Z,51.00
2022-09-14T11:33:52.377Z,50.90
2022-09-14T11:37:03.922Z,51.00
2022-09-14T11:40:19.987Z,51.00
2022-09-14T11:43:37.408Z,50.90
2022-09-14T11:46:47.902Z,51.00
2022-09-14T11:50:00.931Z,51.00
2022-09-14T11:53:13.500Z,50.90
2022-09-14T11:56:27.941Z,50.90
2022-09-14T11:59:41.494Z,51.00
2022-09-14T12:02:43.373Z,50.90
2022-09-14T12:05:46.782Z,50.90
2022-09-14T12:08:48.607Z,50.80
2022-09-14T12:11:54.570Z,50.90
2022-09-14T12:15:00.283Z,51.00
2022-09-14T12:18:08.010Z,51.20
2022-09-14T12:21:21.350Z,52.30
2022-09-14T12:24:23.309Z,52.00
2022-09-14T12:27:25.804Z,52.30
2022-09-14T12:30:40.987Z,51.70
2022-09-14T12:33:45.179Z,51.60
2022-09-14T12:36:46.843Z,51.70
2022-09-14T12:40:19.632Z,51.80
2022-09-14T12:43:33.400Z,51.80
2022-09-14T12:46:38.495Z,51.90
2022-09-14T12:49:40.403Z,51.70
2022-09-14T12:53:08.420Z,51.80
2022-09-14T12:56:24.102Z,51.90
2022-09-14T12:59:47.738Z,52.00
2022-09-14T13:03:00.396Z,52.60
2022-09-14T13:06:02.987Z,51.90
2022-09-14T13:09:09.361Z,52.00
2022-09-14T13:12:14.145Z,51.90
2022-09-14T13:15:21.710Z,51.90
2022-09-14T13:18:23.438Z,51.80
2022-09-14T13:21:25.257Z,51.80
2022-09-14T13:24:37.253Z,51.70
2022-09-14T13:27:39.730Z,52.00
2022-09-14T13:30:41.811Z,51.90
2022-09-14T13:33:49.435Z,52.10
2022-09-14T13:36:51.849Z,52.00
2022-09-14T13:39:57.047Z,51.90
2022-09-14T13:42:59.557Z,52.00
2022-09-14T13:46:01.719Z,51.90
2022-09-14T13:49:06.828Z,51.90
2022-09-14T13:52:33.979Z,52.00
2022-09-14T13:55:40.452Z,52.10
2022-09-14T13:58:42.181Z,52.10
2022-09-14T14:01:59.217Z,52.00
2022-09-14T14:05:04.343Z,52.10
2022-09-14T14:08:33.931Z,52.10
2022-09-14T14:11:37.390Z,52.10
2022-09-14T14:14:39.286Z,52.10
2022-09-14T14:17:41.974Z,52.10
2022-09-14T14:20:43.762Z,52.20
2022-09-14T14:24:09.276Z,52.10
2022-09-14T14:27:22.416Z,52.00
2022-09-14T14:30:25.670Z,52.00
2022-09-14T14:33:27.487Z,52.10
2022-09-14T14:36:29.203Z,52.10
2022-09-14T14:39:32.461Z,52.10
2022-09-14T14:42:34.254Z,51.90
2022-09-14T14:45:36.679Z,52.10
2022-09-14T14:48:38.921Z,52.00
2022-09-14T14:51:41.493Z,52.00
2022-09-14T14:54:43.296Z,52.10
2022-09-14T14:57:45.119Z,52.20
2022-09-14T15:00:47.771Z,52.00
2022-09-14T15:03:49.588Z,52.10
2022-09-14T15:06:51.512Z,52.10
2022-09-14T15:09:53.215Z,52.20
2022-09-14T15:12:55.008Z,52.40
2022-09-14T15:15:56.721Z,52.30
2022-09-14T15:18:58.411Z,52.20
2022-09-14T15:22:01.546Z,52.20
2022-09-14T15:25:05.427Z,52.20
2022-09-14T15:28:07.172Z,52.30
2022-09-14T15:31:09.019Z,52.10
2022-09-14T15:34:10.707Z,52.80
2022-09-14T15:37:12.524Z,52.10
2022-09-14T15:40:14.369Z,52.10
2022-09-14T15:43:16.559Z,52.20
2022-09-14T15:46:18.273Z,52.00
2022-09-14T15:49:24.701Z,52.10
2022-09-14T15:52:26.512Z,52.30
2022-09-14T15:55:28.337Z,52.10
2022-09-14T15:58:30.514Z,52.10
2022-09-14T16:01:32.602Z,52.20
2022-09-14T16:04:38.467Z,52.00
2022-09-14T16:07:40.403Z,52.10
2022-09-14T16:10:42.429Z,52.30
2022-09-14T16:13:44.234Z,52.70
2022-09-14T16:16:46.144Z,53.40
2022-09-14T16:19:49.142Z,53.80
2022-09-14T16:22:51.378Z,54.00
2022-09-14T16:25:53.078Z,53.50
2022-09-14T16:28:55.874Z,53.20
2022-09-14T16:31:57.669Z,52.90
2022-09-14T16:34:59.535Z,52.90
2022-09-14T16:38:01.446Z,53.10
2022-09-14T16:41:04.909Z,52.90
2022-09-14T16:44:07.086Z,53.00
2022-09-14T16:47:09.013Z,52.90
2022-09-14T16:50:10.778Z,53.00
2022-09-14T16:53:12.481Z,52.90
2022-09-14T16:56:17.246Z,53.20
2022-09-14T16:59:20.492Z,53.70
2022-09-14T17:02:22.789Z,52.90
2022-09-14T17:05:24.528Z,53.10
2022-09-14T17:08:26.685Z,53.00
2022-09-14T17:11:30.650Z,52.90
2022-09-14T17:14:33.509Z,53.10
2022-09-14T17:17:35.212Z,53.10
2022-09-14T17:20:36.942Z,53.10
2022-09-14T17:23:39.273Z,53.10
2022-09-14T17:26:41.576Z,53.40
2022-09-14T17:29:43.902Z,53.40
2022-09-14T17:32:45.629Z,53.60
2022-09-14T17:35:48.531Z,53.40
2022-09-14T17:38:50.545Z,53.50
2022-09-14T17:41:52.248Z,53.50
2022-09-14T17:44:53.920Z,53.60
2022-09-14T17:47:55.655Z,53.30
2022-09-14T17:50:58.306Z,53.40
2022-09-14T17:54:01.366Z,53.20
2022-09-14T17:57:03.233Z,53.60
2022-09-14T18:00:06.306Z,53.20
2022-09-14T18:03:09.299Z,53.50
2022-09-14T18:06:12.410Z,53.80
2022-09-14T18:09:22.497Z,54.00
2022-09-14T18:12:24.536Z,54.10
2022-09-14T18:15:26.240Z,54.10
2022-09-14T18:18:27.992Z,53.90
2022-09-14T18:21:29.821Z,54.00
2022-09-14T18:24:31.627Z,54.10
2022-09-14T18:27:33.504Z,54.20
2022-09-14T18:30:35.291Z,54.00
2022-09-14T18:33:37.780Z,54.20
2022-09-14T18:36:39.462Z,54.20
2022-09-14T18:39:41.704Z,54.30
2022-09-14T18:42:43.461Z,54.30
2022-09-14T18:45:46.294Z,54.40
2022-09-14T18:48:51.622Z,54.20
2022-09-14T18:51:53.388Z,54.00
2022-09-14T18:54:55.104Z,54.90
2022-09-14T18:57:56.804Z,54.30
2022-09-14T19:00:58.574Z,54.30
2022-09-14T19:04:02.593Z,54.70
2022-09-14T19:07:05.157Z,54.30
2022-09-14T19:10:11.402Z,61.30
2022-09-14T19:13:13.468Z,62.30
2022-09-14T19:16:18.122Z,53.90
2022-09-14T19:19:19.967Z,54.40
2022-09-14T19:22:21.718Z,54.40
2022-09-14T19:25:23.541Z,54.10
2022-09-14T19:28:25.219Z,54.40
2022-09-14T19:31:30.254Z,54.40
2022-09-14T19:34:32.105Z,54.50
2022-09-14T19:37:33.949Z,54.50
2022-09-14T19:40:35.727Z,54.30
2022-09-14T19:43:37.874Z,54.30
2022-09-14T19:46:40.546Z,54.50
2022-09-14T19:49:42.320Z,54.30
2022-09-14T19:52:44.042Z,54.30
2022-09-14T19:55:45.726Z,54.40
2022-09-14T19:58:49.858Z,54.30
2022-09-14T20:01:51.888Z,54.30
2022-09-14T20:04:53.663Z,54.30
2022-09-14T20:07:55.459Z,54.30
2022-09-14T20:11:02.899Z,54.30
2022-09-14T20:14:06.085Z,54.30
2022-09-14T20:17:07.860Z,54.30
2022-09-14T20:20:11.286Z,54.30
2022-09-14T20:23:13.032Z,54.90
2022-09-14T20:26:15.648Z,54.30
2022-09-14T20:29:19.247Z,54.20
2022-09-14T20:32:20.971Z,54.30
2022-09-14T20:35:22.774Z,54.30
2022-09-14T20:38:24.495Z,54.20
2022-09-14T20:41:29.397Z,54.20
2022-09-14T20:44:31.077Z,54.20
2022-09-14T20:47:32.910Z,54.10
2022-09-14T20:50:34.567Z,54.20
2022-09-14T20:53:39.523Z,54.20
2022-09-14T20:56:42.247Z,54.20
2022-09-14T20:59:43.919Z,54.10
2022-09-14T21:02:50.615Z,54.30
2022-09-14T21:05:58.420Z,54.10
2022-09-14T21:09:00.849Z,54.20
2022-09-14T21:12:02.886Z,54.10
2022-09-14T21:15:04.969Z,54.10
2022-09-14T21:18:06.655Z,54.10
2022-09-14T21:21:12.471Z,54.00
2022-09-14T21:24:15.439Z,54.00
2022-09-14T21:27:17.140Z,54.00
2022-09-14T21:30:18.851Z,54.10
2022-09-14T21:33:20.603Z,54.10
2022-09-14T21:36:44.548Z,54.10
2022-09-14T21:39:46.425Z,54.00
2022-09-14T21:42:48.158Z,54.10
2022-09-14T21:45:49.895Z,54.00
2022-09-14T21:48:52.665Z,54.00
2022-09-14T21:51:54.740Z,54.00
2022-09-14T21:54:56.414Z,54.00
2022-09-14T21:57:58.138Z,53.90
2022-09-14T22:01:01.395Z,54.00
2022-09-14T22:04:03.655Z,54.00
2022-09-14T22:07:05.590Z,53.90
2022-09-14T22:10:08.258Z,53.90
2022-09-14T22:13:09.939Z,54.10
2022-09-14T22:16:16.943Z,53.80
2022-09-14T22:19:28.362Z,53.70
2022-09-14T22:22:30.158Z,53.80
2022-09-14T22:25:33.668Z,53.70
2022-09-14T22:28:36.701Z,53.70
2022-09-14T22:31:40.923Z,53.60
2022-09-14T22:34:44.672Z,53.60
2022-09-14T22:37:49.382Z,53.60
2022-09-14T22:40:55.393Z,53.60
2022-09-14T22:43:57.313Z,53.60
2022-09-14T22:46:59.005Z,53.50
2022-09-14T22:50:00.690Z,53.50
2022-09-14T22:53:02.407Z,53.50
2022-09-14T22:56:17.863Z,53.40
2022-09-14T22:59:19.542Z,53.40
2022-09-14T23:02:21.293Z,53.40
2022-09-14T23:05:23.057Z,53.40
2022-09-14T23:08:24.748Z,53.40
2022-09-14T23:11:27.092Z,53.40
2022-09-14T23:14:29.016Z,53.40
2022-09-14T23:17:30.707Z,53.50
2022-09-14T23:20:37.114Z,53.40
2022-09-14T23:23:38.905Z,53.40
2022-09-14T23:26:40.835Z,53.30
2022-09-14T23:29:42.643Z,53.40
2022-09-14T23:32:44.396Z,53.40
2022-09-14T23:35:50.408Z,53.30
2022-09-14T23:38:52.517Z,53.30
2022-09-14T23:41:54.383Z,53.20
2022-09-14T23:44:56.097Z,53.20
2022-09-14T23:47:57.936Z,53.30
2022-09-14T23:51:02.673Z,53.40
2022-09-14T23:54:05.546Z,53.30
2022-09-14T23:57:07.223Z,53.30
